Time;durP1;ratioP1;P1;durP2;ratioP2;P2;SDS_P1;SDS_P2;PMS_P1;PMS_P2;Temp;Humidity;BMP_temperature;BMP_pressure;BME280_temperature;BME280_humidity;BME280_pressure;Samples;Min_cycle;Max_cycle;Signal;HPM_P1;HPM_P2
2023/06/19 00:01:12;;;;;;;11.30;7.80;;;22.10;32.20;;;;;;5054228;28;20421;-75
2023/06/19 00:03:38;;;;;;;9.87;8.10;;;22.10;32.60;;;;;;5057717;28;20374;-75
2023/06/19 00:06:04;;;;;;;10.43;7.80;;;22.10;32.70;;;;;;5037048;28;20390;-75
2023/06/19 00:08:30;;;;;;;16.67;8.20;;;22.10;32.90;;;;;;5036662;28;20393;-76
2023/06/19 00:10:56;;;;;;;12.40;8.32;;;22.00;33.50;;;;;;5052812;28;20481;-74
2023/06/19 00:13:21;;;;;;;9.57;7.90;;;21.90;33.90;;;;;;5052538;28;20393;-75
2023/06/19 00:15:47;;;;;;;9.95;7.50;;;21.90;33.90;;;;;;5052845;28;20385;-75
2023/06/19 00:18:13;;;;;;;9.30;7.60;;;21.80;34.10;;;;;;5052422;28;20408;-75
2023/06/19 00:20:39;;;;;;;10.10;7.50;;;21.80;34.40;;;;;;5052409;28;20837;-74
2023/06/19 00:23:06;;;;;;;11.45;7.70;;;21.70;34.70;;;;;;5052119;28;20385;-75
2023/06/19 00:25:31;;;;;;;8.17;7.37;;;21.70;34.80;;;;;;5034423;28;20475;-75
2023/06/19 00:27:57;;;;;;;9.07;7.50;;;21.70;34.70;;;;;;5051711;28;20909;-75
2023/06/19 00:30:23;;;;;;;9.15;7.90;;;21.60;35.20;;;;;;5051740;28;20388;-74
2023/06/19 00:32:49;;;;;;;11.10;7.80;;;21.50;36.10;;;;;;5051528;28;20475;-74
2023/06/19 00:35:17;;;;;;;12.20;8.13;;;21.40;36.70;;;;;;5051914;28;20873;-74
2023/06/19 00:37:46;;;;;;;11.70;7.80;;;21.40;36.60;;;;;;5052294;28;20773;-75
2023/06/19 00:40:29;;;;;;;10.68;7.75;;;21.40;36.60;;;;;;5052479;28;20385;-74
2023/06/19 00:42:55;;;;;;;9.60;7.50;;;21.40;36.30;;;;;;5051876;28;20378;-74
2023/06/19 00:45:20;;;;;;;8.97;7.70;;;21.50;35.60;;;;;;5052528;28;20389;-75
2023/06/19 00:47:46;;;;;;;11.50;7.63;;;21.50;35.60;;;;;;5052420;28;20869;-74
2023/06/19 00:50:12;;;;;;;9.63;8.00;;;21.60;35.00;;;;;;5051498;28;20735;-75
2023/06/19 00:52:38;;;;;;;9.97;7.77;;;21.70;34.80;;;;;;5051311;28;20396;-75
2023/06/19 00:55:05;;;;;;;10.00;8.00;;;21.50;35.80;;;;;;5050500;28;20400;-68
2023/06/19 00:57:31;;;;;;;11.10;7.73;;;21.40;36.50;;;;;;5051368;28;20408;-71
2023/06/19 00:59:57;;;;;;;10.10;7.85;;;21.40;36.40;;;;;;5051204;28;20473;-73
2023/06/19 01:02:24;;;;;;;14.38;11.25;;;21.30;36.70;;;;;;5051514;28;20389;-72
2023/06/19 01:04:51;;;;;;;11.20;9.32;;;21.20;37.20;;;;;;5052762;28;20728;-70
2023/06/19 01:07:22;;;;;;;13.63;9.90;;;21.20;37.10;;;;;;5053262;28;20385;-71
2023/06/19 01:09:55;;;;;;;12.32;10.10;;;21.20;37.30;;;;;;5053363;28;20385;-72
2023/06/19 01:12:23;;;;;;;15.40;11.45;;;21.20;37.30;;;;;;5060326;28;20447;-72
2023/06/19 01:15:01;;;;;;;10.40;8.73;;;21.20;37.20;;;;;;5080640;28;20459;-71
2023/06/19 01:17:28;;;;;;;14.93;10.10;;;21.20;37.40;;;;;;5074905;28;20407;-76
2023/06/19 01:19:55;;;;;;;11.80;8.30;;;21.10;37.70;;;;;;5080893;28;20418;-75
2023/06/19 01:22:31;;;;;;;15.75;8.88;;;21.10;38.00;;;;;;5076886;28;20375;-76
2023/06/19 01:24:57;;;;;;;13.98;8.77;;;21.00;38.20;;;;;;5073716;28;20388;-74
2023/06/19 01:27:29;;;;;;;10.15;8.07;;;21.10;37.90;;;;;;5072670;28;20383;-75
2023/06/19 01:29:56;;;;;;;9.75;7.70;;;21.00;38.40;;;;;;5071357;28;20379;-77
2023/06/19 01:33:03;;;;;;;12.88;7.90;;;20.90;39.00;;;;;;5070037;28;20396;-75
2023/06/19 01:35:32;;;;;;;14.15;8.20;;;21.00;38.80;;;;;;5071983;28;20395;-77
2023/06/19 01:38:00;;;;;;;11.25;8.43;;;20.90;39.10;;;;;;5072077;28;20461;-75
2023/06/19 01:40:31;;;;;;;10.50;8.70;;;20.80;40.40;;;;;;5072640;28;20387;-75
2023/06/19 01:43:00;;;;;;;12.38;8.63;;;20.80;41.30;;;;;;5072747;28;20453;-75
2023/06/19 01:45:29;;;;;;;11.15;8.70;;;20.60;42.20;;;;;;5074854;28;20379;-75
2023/06/19 01:47:55;;;;;;;14.45;9.00;;;20.60;42.90;;;;;;5072931;28;20384;-75
2023/06/19 01:50:24;;;;;;;12.37;8.77;;;20.60;43.20;;;;;;5071703;28;20399;-76
2023/06/19 01:52:50;;;;;;;10.70;8.60;;;20.50;44.00;;;;;;5072255;28;20379;-75
2023/06/19 01:55:16;;;;;;;9.50;8.38;;;20.50;44.50;;;;;;5073569;28;20395;-77
2023/06/19 01:57:41;;;;;;;10.55;8.30;;;20.40;45.10;;;;;;5073603;28;20785;-76
2023/06/19 02:00:07;;;;;;;11.20;8.70;;;20.40;45.10;;;;;;5076107;28;20383;-77
2023/06/19 02:02:33;;;;;;;10.73;8.60;;;20.40;45.40;;;;;;5075262;28;20390;-77
2023/06/19 02:04:59;;;;;;;10.38;8.43;;;20.40;45.00;;;;;;5073774;28;20733;-76
2023/06/19 02:07:24;;;;;;;10.60;8.00;;;20.60;44.40;;;;;;5073438;28;20380;-77
2023/06/19 02:09:51;;;;;;;10.73;8.80;;;20.50;44.50;;;;;;5073421;28;20384;-76
2023/06/19 02:12:16;;;;;;;10.50;8.25;;;20.50;44.60;;;;;;5080228;28;20399;-74
2023/06/19 02:14:42;;;;;;;10.38;8.77;;;20.60;44.70;;;;;;5083386;28;20384;-75
2023/06/19 02:17:07;;;;;;;12.00;9.30;;;20.60;44.40;;;;;;5070678;28;20411;-76
2023/06/19 02:19:33;;;;;;;11.77;8.50;;;20.70;44.00;;;;;;5070803;28;20833;-76
2023/06/19 02:21:58;;;;;;;10.90;8.68;;;20.80;43.60;;;;;;5069655;28;20403;-76
2023/06/19 02:24:24;;;;;;;11.33;8.80;;;20.90;43.20;;;;;;5070032;28;20391;-76
2023/06/19 02:26:50;;;;;;;11.40;8.40;;;20.90;42.50;;;;;;5070357;28;20748;-76
2023/06/19 02:29:16;;;;;;;11.65;9.23;;;21.00;42.10;;;;;;5070202;28;20883;-76
2023/06/19 02:31:42;;;;;;;13.13;9.55;;;21.00;42.20;;;;;;5069084;28;20383;-77
2023/06/19 02:34:08;;;;;;;12.95;9.20;;;21.20;40.60;;;;;;5072967;28;20582;-77
2023/06/19 02:36:35;;;;;;;14.68;9.60;;;21.30;39.60;;;;;;5073583;28;20398;-74
2023/06/19 02:39:01;;;;;;;11.27;9.50;;;21.60;38.30;;;;;;5073306;28;20414;-77
2023/06/19 02:41:27;;;;;;;11.98;9.00;;;21.70;37.20;;;;;;5073519;28;20384;-75
2023/06/19 02:43:52;;;;;;;9.60;8.40;;;21.70;36.70;;;;;;5073802;28;20380;-76
2023/06/19 02:46:18;;;;;;;11.80;8.47;;;21.90;35.40;;;;;;5073601;28;20872;-75
2023/06/19 02:48:44;;;;;;;11.47;8.10;;;22.10;34.40;;;;;;5073676;28;20453;-75
2023/06/19 02:51:09;;;;;;;12.02;7.47;;;22.20;34.20;;;;;;5073639;28;20904;-78
2023/06/19 02:53:35;;;;;;;9.50;7.30;;;22.30;33.70;;;;;;5073257;28;20466;-77
2023/06/19 02:56:00;;;;;;;12.40;6.75;;;22.30;33.70;;;;;;5073519;28;20380;-77
2023/06/19 02:58:26;;;;;;;10.73;6.43;;;22.40;33.20;;;;;;5073376;28;20494;-76
2023/06/19 03:00:52;;;;;;;8.30;6.20;;;22.40;33.40;;;;;;5073718;28;20411;-76
2023/06/19 03:03:18;;;;;;;8.00;6.37;;;22.30;33.60;;;;;;5073222;28;20418;-76
2023/06/19 03:05:43;;;;;;;7.82;5.70;;;22.30;33.80;;;;;;5073822;28;20384;-76
2023/06/19 03:08:09;;;;;;;7.00;6.00;;;22.20;33.70;;;;;;5075249;28;20384;-76
2023/06/19 03:10:34;;;;;;;7.47;5.53;;;22.20;34.00;;;;;;5075146;28;20519;-76
2023/06/19 03:13:00;;;;;;;8.13;5.70;;;22.00;34.70;;;;;;5074903;28;20401;-76
2023/06/19 03:15:26;;;;;;;6.60;5.10;;;22.00;34.90;;;;;;5075207;28;20399;-76
2023/06/19 03:17:53;;;;;;;6.72;5.13;;;21.90;35.50;;;;;;5079054;28;20399;-77
2023/06/19 03:20:20;;;;;;;8.60;5.30;;;21.90;36.10;;;;;;5080984;28;20390;-77
2023/06/19 03:22:46;;;;;;;8.18;5.03;;;21.90;36.70;;;;;;5075537;28;20452;-76
2023/06/19 03:25:12;;;;;;;8.40;5.13;;;21.80;37.70;;;;;;5075953;28;20382;-77
2023/06/19 03:27:37;;;;;;;7.37;5.60;;;21.70;38.20;;;;;;5075714;28;20386;-77
2023/06/19 03:30:08;;;;;;;5.40;4.90;;;21.60;38.90;;;;;;5077830;28;20801;-76
2023/06/19 03:32:33;;;;;;;5.50;5.00;;;21.60;39.40;;;;;;5074944;28;20459;-75
2023/06/19 03:34:59;;;;;;;6.30;5.10;;;21.50;40.00;;;;;;5074890;28;20450;-76
2023/06/19 03:37:25;;;;;;;7.30;5.00;;;21.40;41.10;;;;;;5083679;28;20403;-75
2023/06/19 03:39:51;;;;;;;6.88;5.80;;;21.30;41.40;;;;;;5089040;28;20384;-74
2023/06/19 03:42:16;;;;;;;7.23;5.10;;;21.40;41.50;;;;;;5087435;28;20379;-75
2023/06/19 03:44:42;;;;;;;6.03;5.13;;;21.40;41.70;;;;;;5087888;28;20383;-75
2023/06/19 03:47:07;;;;;;;8.63;5.50;;;21.40;42.00;;;;;;5078019;28;20387;-77
2023/06/19 03:49:33;;;;;;;9.60;5.40;;;21.40;42.00;;;;;;5078624;28;20415;-75
2023/06/19 03:51:59;;;;;;;6.40;5.07;;;21.50;41.40;;;;;;5071064;28;20961;-75
2023/06/19 03:54:26;;;;;;;8.57;5.27;;;21.50;41.10;;;;;;5071100;28;20480;-74
2023/06/19 03:56:51;;;;;;;5.80;4.87;;;21.60;40.90;;;;;;5071822;28;20497;-75
2023/06/19 03:59:17;;;;;;;7.37;5.40;;;21.60;40.90;;;;;;5072203;28;20385;-76
2023/06/19 04:01:43;;;;;;;5.38;4.40;;;21.60;41.60;;;;;;5072020;28;20475;-76
2023/06/19 04:04:08;;;;;;;5.57;4.50;;;21.50;42.80;;;;;;5072030;28;20402;-75
2023/06/19 04:06:34;;;;;;;6.70;4.17;;;21.40;43.10;;;;;;5071770;28;20388;-77
2023/06/19 04:08:59;;;;;;;6.97;4.22;;;21.30;44.80;;;;;;5071570;28;20395;-76
2023/06/19 04:11:25;;;;;;;5.37;4.20;;;21.20;45.10;;;;;;5071388;28;20422;-76
2023/06/19 04:13:50;;;;;;;4.90;3.70;;;21.10;46.00;;;;;;5071821;28;20399;-77
2023/06/19 04:16:16;;;;;;;4.37;3.67;;;21.10;46.60;;;;;;5072988;28;20380;-76
2023/06/19 04:18:42;;;;;;;5.00;3.80;;;21.10;46.90;;;;;;5071931;28;20453;-78
2023/06/19 04:21:07;;;;;;;6.95;3.97;;;21.10;47.00;;;;;;5072273;28;20380;-76
2023/06/19 04:23:33;;;;;;;7.63;3.50;;;21.00;47.50;;;;;;5071677;28;20871;-77
2023/06/19 04:25:58;;;;;;;7.80;4.10;;;21.00;48.00;;;;;;5071540;28;20398;-76
2023/06/19 04:28:24;;;;;;;6.63;4.10;;;21.00;48.10;;;;;;5071972;28;20376;-75
2023/06/19 04:30:49;;;;;;;5.50;4.00;;;21.00;48.40;;;;;;5071598;28;20411;-76
2023/06/19 04:33:15;;;;;;;5.28;4.50;;;21.00;48.60;;;;;;5071135;28;20384;-76
2023/06/19 04:35:40;;;;;;;4.70;4.00;;;21.10;48.50;;;;;;5070302;28;20383;-75
2023/06/19 04:38:07;;;;;;;5.40;4.30;;;21.10;48.40;;;;;;5071872;28;20395;-76
2023/06/19 04:40:33;;;;;;;4.82;4.10;;;21.20;47.90;;;;;;5071142;28;20375;-75
2023/06/19 04:43:01;;;;;;;5.28;3.80;;;21.20;47.40;;;;;;5071481;28;20956;-76
2023/06/19 04:45:26;;;;;;;8.50;4.45;;;21.30;46.80;;;;;;5071538;28;20415;-76
2023/06/19 04:47:52;;;;;;;5.47;4.22;;;21.20;46.90;;;;;;5071344;28;20773;-75
2023/06/19 04:50:17;;;;;;;6.80;4.30;;;21.20;47.80;;;;;;5071247;28;20586;-76
2023/06/19 04:52:43;;;;;;;5.22;3.90;;;21.20;46.90;;;;;;5070594;28;20423;-76
2023/06/19 04:55:09;;;;;;;6.03;4.07;;;21.30;46.90;;;;;;5070989;28;20412;-76
2023/06/19 04:57:37;;;;;;;5.07;4.30;;;21.50;45.80;;;;;;5074384;28;20399;-76
2023/06/19 05:00:06;;;;;;;8.40;4.63;;;21.50;45.30;;;;;;5072165;28;20387;-76
2023/06/19 05:02:33;;;;;;;5.30;3.85;;;21.50;44.90;;;;;;5072940;28;20949;-75
2023/06/19 05:05:02;;;;;;;4.90;4.38;;;21.60;44.80;;;;;;5072496;28;20392;-75
2023/06/19 05:07:31;;;;;;;6.35;4.30;;;21.60;44.80;;;;;;5070925;28;20561;-77
2023/06/19 05:09:58;;;;;;;8.02;4.20;;;21.80;43.50;;;;;;5069945;28;20511;-76
2023/06/19 05:12:23;;;;;;;11.13;4.65;;;21.90;43.00;;;;;;5070510;28;20465;-77
2023/06/19 05:14:49;;;;;;;7.18;3.85;;;22.00;41.90;;;;;;5075192;28;20482;-75
2023/06/19 05:17:15;;;;;;;5.32;3.78;;;22.00;42.10;;;;;;5083647;28;20467;-76
2023/06/19 05:19:40;;;;;;;4.57;3.90;;;22.00;41.60;;;;;;5078455;28;20380;-75
2023/06/19 05:22:06;;;;;;;5.97;3.80;;;22.10;40.70;;;;;;5069636;28;20387;-76
2023/06/19 05:24:32;;;;;;;4.18;3.40;;;22.20;40.60;;;;;;5071198;28;20383;-76
2023/06/19 05:26:58;;;;;;;8.98;3.67;;;22.30;39.70;;;;;;5070818;28;20470;-77
2023/06/19 05:29:24;;;;;;;5.43;3.85;;;22.40;39.30;;;;;;5072625;28;20453;-76
2023/06/19 05:31:50;;;;;;;8.07;3.90;;;22.50;38.80;;;;;;5070699;28;20384;-76
2023/06/19 05:34:15;;;;;;;6.80;3.70;;;22.40;38.90;;;;;;5071409;28;20473;-76
2023/06/19 05:36:41;;;;;;;5.40;3.72;;;22.50;38.70;;;;;;5069586;28;20390;-77
2023/06/19 05:39:07;;;;;;;9.55;3.70;;;22.60;38.40;;;;;;5070671;28;20392;-76
2023/06/19 05:41:32;;;;;;;7.87;3.90;;;22.70;37.40;;;;;;5071006;28;20868;-75
2023/06/19 05:43:58;;;;;;;7.47;4.22;;;22.70;37.00;;;;;;5071285;28;20376;-76
2023/06/19 05:46:23;;;;;;;7.63;4.00;;;22.80;36.80;;;;;;5070380;28;20444;-75
2023/06/19 05:48:49;;;;;;;5.90;3.90;;;22.70;36.90;;;;;;5071063;28;20491;-76
2023/06/19 05:51:14;;;;;;;5.80;4.10;;;22.80;36.10;;;;;;5071150;28;20717;-76
2023/06/19 05:53:40;;;;;;;8.18;4.10;;;23.00;35.50;;;;;;5071333;28;20384;-76
2023/06/19 05:56:06;;;;;;;8.90;4.03;;;23.00;35.40;;;;;;5070927;28;20825;-76
2023/06/19 05:58:32;;;;;;;7.05;4.30;;;22.90;35.90;;;;;;5069734;28;20408;-77
2023/06/19 06:00:58;;;;;;;8.63;3.77;;;23.00;35.30;;;;;;5071051;28;20875;-75
2023/06/19 06:03:25;;;;;;;6.30;3.90;;;23.00;35.50;;;;;;5070828;28;20865;-77
2023/06/19 06:05:51;;;;;;;9.32;4.30;;;23.00;36.10;;;;;;5070570;28;20384;-77
2023/06/19 06:08:17;;;;;;;6.78;4.07;;;23.20;35.30;;;;;;5073959;28;20876;-76
2023/06/19 06:10:43;;;;;;;4.60;3.65;;;23.30;34.50;;;;;;5074497;28;20390;-76
2023/06/19 06:13:08;;;;;;;7.30;3.90;;;23.40;33.80;;;;;;5074102;28;20464;-77
2023/06/19 06:15:34;;;;;;;7.57;3.90;;;23.60;32.60;;;;;;5074504;28;20388;-77
2023/06/19 06:18:00;;;;;;;11.57;4.07;;;23.70;32.40;;;;;;5075354;28;20407;-76
2023/06/19 06:20:26;;;;;;;5.20;4.20;;;23.70;32.40;;;;;;5074789;28;20454;-77
2023/06/19 06:22:52;;;;;;;14.57;3.90;;;23.70;32.10;;;;;;5073715;28;20407;-76
2023/06/19 06:25:18;;;;;;;9.18;3.78;;;23.70;32.00;;;;;;5074629;28;20398;-77
2023/06/19 06:27:44;;;;;;;6.00;3.97;;;23.70;32.00;;;;;;5077121;28;20803;-75
2023/06/19 06:30:11;;;;;;;5.25;3.35;;;23.80;30.90;;;;;;5076537;28;20880;-77
2023/06/19 06:32:37;;;;;;;6.53;3.67;;;23.90;31.10;;;;;;5076475;28;20422;-76
2023/06/19 06:35:03;;;;;;;8.40;4.10;;;23.90;30.40;;;;;;5074907;28;20387;-75
2023/06/19 06:37:28;;;;;;;5.70;3.30;;;23.90;30.10;;;;;;5074570;28;20449;-76
2023/06/19 06:39:54;;;;;;;6.40;3.70;;;23.70;31.10;;;;;;5074230;28;20787;-76
2023/06/19 06:42:19;;;;;;;6.40;3.40;;;23.80;31.00;;;;;;5075334;28;20386;-77
2023/06/19 06:44:45;;;;;;;5.43;3.40;;;23.70;30.90;;;;;;5074190;28;20477;-76
2023/06/19 06:47:11;;;;;;;4.47;3.22;;;23.90;30.40;;;;;;5073861;28;20429;-77
2023/06/19 06:49:36;;;;;;;5.15;3.20;;;23.90;30.10;;;;;;5073801;28;20384;-77
2023/06/19 06:52:06;;;;;;;7.17;3.40;;;23.90;30.50;;;;;;5074078;28;20380;-76
2023/06/19 06:54:31;;;;;;;4.18;3.10;;;24.00;30.00;;;;;;5074216;28;20783;-76
2023/06/19 06:56:59;;;;;;;7.23;3.50;;;24.20;29.30;;;;;;5075445;28;20437;-76
2023/06/19 06:59:26;;;;;;;6.13;3.47;;;24.20;29.10;;;;;;5075432;28;20767;-77
2023/06/19 07:01:53;;;;;;;4.38;3.50;;;24.00;29.50;;;;;;5073836;28;20436;-76
2023/06/19 07:04:18;;;;;;;5.30;2.90;;;23.80;30.80;;;;;;5072623;28;20391;-77
2023/06/19 07:06:44;;;;;;;9.00;3.60;;;23.70;31.60;;;;;;5076185;28;20380;-75
2023/06/19 07:09:10;;;;;;;4.73;3.27;;;23.60;31.80;;;;;;5076791;28;20384;-75
2023/06/19 07:11:35;;;;;;;3.90;3.50;;;23.50;32.00;;;;;;5074902;28;20386;-76
2023/06/19 07:14:02;;;;;;;5.47;3.15;;;23.60;31.20;;;;;;5074596;28;20380;-76
2023/06/19 07:16:28;;;;;;;3.53;3.20;;;23.80;30.60;;;;;;5074597;28;20380;-76
2023/06/19 07:18:53;;;;;;;6.50;3.63;;;23.90;30.20;;;;;;5072371;28;20404;-76
2023/06/19 07:21:19;;;;;;;5.50;3.10;;;24.00;29.10;;;;;;5073177;28;20392;-77
2023/06/19 07:23:47;;;;;;;4.10;3.07;;;24.10;29.30;;;;;;5072838;28;20378;-77
2023/06/19 07:26:14;;;;;;;6.05;3.25;;;24.20;29.10;;;;;;5071776;28;20441;-77
2023/06/19 07:28:39;;;;;;;4.82;3.20;;;24.40;28.00;;;;;;5073381;28;20732;-76
2023/06/19 07:31:05;;;;;;;4.70;3.00;;;24.80;26.50;;;;;;5073604;28;20376;-78
2023/06/19 07:33:31;;;;;;;5.80;3.50;;;25.10;25.50;;;;;;5074372;28;20492;-76
2023/06/19 07:35:56;;;;;;;6.43;3.60;;;25.00;25.50;;;;;;5073970;28;20873;-77
2023/06/19 07:38:22;;;;;;;10.90;3.57;;;24.70;26.80;;;;;;5075945;28;20399;-77
2023/06/19 07:40:48;;;;;;;4.10;3.50;;;24.20;28.50;;;;;;5074467;28;20741;-76
2023/06/19 07:43:13;;;;;;;10.10;3.58;;;23.80;32.00;;;;;;5073459;28;20469;-77
2023/06/19 07:45:39;;;;;;;10.47;3.80;;;23.20;36.40;;;;;;5073109;28;20441;-77
2023/06/19 07:48:05;;;;;;;7.70;3.00;;;23.00;39.10;;;;;;5074620;28;20421;-76
2023/06/19 07:50:31;;;;;;;7.33;3.47;;;22.80;40.90;;;;;;5075138;28;20383;-76
2023/06/19 07:52:57;;;;;;;7.97;3.40;;;22.80;41.20;;;;;;5075114;28;20903;-76
2023/06/19 07:55:23;;;;;;;7.53;3.50;;;22.90;39.90;;;;;;5074561;28;20396;-77
2023/06/19 07:57:48;;;;;;;7.10;3.73;;;23.10;37.90;;;;;;5072514;28;20431;-77
2023/06/19 08:00:14;;;;;;;8.40;4.30;;;23.20;37.60;;;;;;5074188;28;20403;-77
2023/06/19 08:02:40;;;;;;;5.30;3.72;;;23.40;37.00;;;;;;5072909;28;20390;-77
2023/06/19 08:05:07;;;;;;;5.88;3.42;;;23.60;35.20;;;;;;5073123;28;20753;-76
2023/06/19 08:07:33;;;;;;;5.78;3.80;;;23.80;34.20;;;;;;5072778;28;20880;-75
2023/06/19 08:09:59;;;;;;;7.97;3.92;;;24.00;33.10;;;;;;5072906;28;20486;-76
2023/06/19 08:12:24;;;;;;;5.03;3.95;;;23.90;33.20;;;;;;5073058;28;20452;-75
2023/06/19 08:14:50;;;;;;;7.00;4.50;;;23.80;33.90;;;;;;5072604;28;20913;-76
2023/06/19 08:17:15;;;;;;;9.68;4.05;;;23.80;33.50;;;;;;5072297;28;20411;-76
2023/06/19 08:19:42;;;;;;;8.03;4.37;;;23.70;33.80;;;;;;5072530;28;20376;-75
2023/06/19 08:22:08;;;;;;;6.45;4.25;;;23.80;33.70;;;;;;5072396;28;20386;-76
2023/06/19 08:24:36;;;;;;;8.52;4.00;;;23.90;33.20;;;;;;5073298;28;20435;-76
2023/06/19 08:27:02;;;;;;;6.88;4.40;;;24.00;32.10;;;;;;5072949;28;20839;-76
2023/06/19 08:29:27;;;;;;;9.93;4.20;;;23.90;30.90;;;;;;5072626;28;20471;-76
2023/06/19 08:31:53;;;;;;;7.70;4.32;;;24.00;30.40;;;;;;5072661;28;20422;-77
2023/06/19 08:34:18;;;;;;;5.27;4.17;;;24.20;30.60;;;;;;5072061;28;20423;-77
2023/06/19 08:36:44;;;;;;;4.90;3.58;;;24.40;28.60;;;;;;5072860;28;20444;-75
2023/06/19 08:39:10;;;;;;;4.87;3.90;;;24.60;28.70;;;;;;5071751;28;20487;-75
2023/06/19 08:41:38;;;;;;;7.77;4.20;;;24.70;27.20;;;;;;5072285;28;20391;-75
2023/06/19 08:44:05;;;;;;;5.93;3.80;;;24.80;26.60;;;;;;5072133;28;20380;-75
2023/06/19 08:46:31;;;;;;;6.47;4.28;;;25.00;25.40;;;;;;5071454;28;20407;-77
2023/06/19 08:48:56;;;;;;;5.88;4.13;;;25.10;24.60;;;;;;5071657;28;20942;-77
2023/06/19 08:51:22;;;;;;;7.63;4.17;;;25.00;24.70;;;;;;5071751;28;20384;-76
2023/06/19 08:53:53;;;;;;;6.53;3.63;;;25.00;24.50;;;;;;5071859;28;20471;-77
2023/06/19 08:56:19;;;;;;;7.88;4.13;;;24.90;24.10;;;;;;5071450;28;20376;-76
2023/06/19 08:58:44;;;;;;;7.25;3.80;;;25.10;23.30;;;;;;5071749;28;20760;-75
2023/06/19 09:01:16;;;;;;;5.13;3.90;;;25.40;22.30;;;;;;5070287;28;20490;-77
2023/06/19 09:03:42;;;;;;;5.22;4.03;;;25.80;21.80;;;;;;5072320;28;20395;-77
2023/06/19 09:06:08;;;;;;;8.30;4.40;;;26.30;20.40;;;;;;5072692;28;20449;-75
2023/06/19 09:08:33;;;;;;;6.32;4.25;;;26.70;18.80;;;;;;5072717;28;20390;-76
2023/06/19 09:11:03;;;;;;;7.05;4.20;;;26.70;18.40;;;;;;5073736;28;20384;-76
2023/06/19 09:13:30;;;;;;;8.60;4.32;;;26.70;18.70;;;;;;5076940;28;20447;-76
2023/06/19 09:16:04;;;;;;;7.50;4.22;;;26.50;19.10;;;;;;5080491;28;20458;-78
2023/06/19 09:18:50;;;;;;;5.93;4.50;;;26.50;18.80;;;;;;5081001;28;20396;-78
2023/06/19 09:21:21;;;;;;;7.05;4.28;;;26.70;18.30;;;;;;5079405;28;20384;-78
2023/06/19 09:23:47;;;;;;;7.50;4.10;;;27.10;17.60;;;;;;5079497;28;20853;-77
2023/06/19 09:26:17;;;;;;;7.65;3.88;;;27.40;16.90;;;;;;5079487;28;20387;-77
2023/06/19 09:28:43;;;;;;;5.35;4.20;;;27.80;16.00;;;;;;5080929;28;20383;-74
2023/06/19 09:31:09;;;;;;;6.35;4.20;;;27.60;16.40;;;;;;5083637;28;20454;-77
2023/06/19 09:33:35;;;;;;;12.00;4.40;;;26.90;17.70;;;;;;5083816;28;20447;-77
2023/06/19 09:36:03;;;;;;;5.70;4.50;;;26.50;18.40;;;;;;5090005;28;20387;-75
2023/06/19 09:38:31;;;;;;;6.72;4.10;;;26.30;18.30;;;;;;5086190;28;20447;-77
2023/06/19 09:41:00;;;;;;;7.40;4.40;;;26.40;17.80;;;;;;5085664;28;20409;-75
2023/06/19 09:43:33;;;;;;;8.30;4.70;;;26.70;18.10;;;;;;5090220;28;20925;-77
2023/06/19 09:45:59;;;;;;;6.90;4.97;;;27.10;16.30;;;;;;5086714;28;20390;-76
2023/06/19 09:48:32;;;;;;;5.93;4.30;;;27.30;15.60;;;;;;5083927;28;20387;-77
2023/06/19 09:51:21;;;;;;;8.80;4.40;;;27.80;14.70;;;;;;5084864;28;20379;-76
2023/06/19 09:53:48;;;;;;;7.70;4.57;;;27.80;13.90;;;;;;5079925;28;20469;-77
2023/06/19 09:56:15;;;;;;;8.00;4.70;;;27.30;14.50;;;;;;5077661;28;20864;-77
2023/06/19 09:58:43;;;;;;;9.00;4.72;;;27.00;15.30;;;;;;5077173;28;20478;-78
2023/06/19 10:01:09;;;;;;;10.70;5.30;;;26.60;15.70;;;;;;5077454;28;20475;-78
2023/06/19 10:03:36;;;;;;;8.20;4.93;;;26.40;17.10;;;;;;5080878;28;20396;-77
2023/06/19 10:06:03;;;;;;;9.70;5.17;;;26.20;18.20;;;;;;5076771;28;20456;-75
2023/06/19 10:08:40;;;;;;;8.70;4.70;;;26.10;16.70;;;;;;5079637;28;20391;-77
2023/06/19 10:11:05;;;;;;;6.72;5.20;;;26.00;16.80;;;;;;5076045;28;20385;-79
2023/06/19 10:13:33;;;;;;;6.53;5.10;;;26.10;17.20;;;;;;5078790;28;20850;-77
2023/06/19 10:15:59;;;;;;;7.63;4.63;;;26.20;16.00;;;;;;5076502;28;20806;-76
2023/06/19 10:18:26;;;;;;;7.97;4.90;;;26.10;15.60;;;;;;5077752;28;20820;-78
2023/06/19 10:20:53;;;;;;;7.95;4.80;;;26.30;15.30;;;;;;5077591;28;20394;-77
2023/06/19 10:23:28;;;;;;;12.15;5.05;;;26.30;14.30;;;;;;5078433;28;20861;-77
2023/06/19 10:25:53;;;;;;;8.20;5.00;;;26.40;14.50;;;;;;5077127;28;20477;-79
2023/06/19 10:28:30;;;;;;;8.38;4.90;;;26.40;14.90;;;;;;5077959;28;20395;-79
2023/06/19 10:31:02;;;;;;;6.07;4.78;;;26.50;15.10;;;;;;5081559;28;20390;-77
2023/06/19 10:33:33;;;;;;;8.10;5.30;;;26.60;14.40;;;;;;5077784;28;20717;-77
2023/06/19 10:36:01;;;;;;;7.50;5.10;;;26.80;13.90;;;;;;5079469;28;20391;-77
2023/06/19 10:38:27;;;;;;;8.00;4.97;;;26.80;14.10;;;;;;5077956;28;20419;-77
2023/06/19 10:40:52;;;;;;;13.15;5.18;;;26.70;13.90;;;;;;5076692;28;20380;-78
2023/06/19 10:43:24;;;;;;;6.47;5.20;;;26.70;13.80;;;;;;5080640;28;20436;-77
2023/06/19 10:45:51;;;;;;;8.73;5.70;;;26.70;13.50;;;;;;5082486;28;20459;-78
2023/06/19 10:48:24;;;;;;;6.70;4.80;;;26.50;14.10;;;;;;5087595;28;20388;-77
2023/06/19 10:50:50;;;;;;;4.65;4.15;;;26.50;14.40;;;;;;5088631;28;20407;-75
2023/06/19 10:53:32;;;;;;;7.07;4.88;;;26.90;13.70;;;;;;5082886;28;20418;-78
2023/06/19 10:56:00;;;;;;;7.25;5.10;;;27.10;13.10;;;;;;5081273;28;20384;-77
2023/06/19 10:58:29;;;;;;;9.43;5.03;;;27.30;12.70;;;;;;5078245;28;20490;-78
2023/06/19 11:00:55;;;;;;;6.28;4.65;;;27.40;11.80;;;;;;5075997;28;20391;-77
2023/06/19 11:03:21;;;;;;;8.98;4.75;;;27.80;11.00;;;;;;5074251;28;20744;-77
2023/06/19 11:05:47;;;;;;;8.10;5.10;;;27.90;10.00;;;;;;5074536;28;20511;-77
2023/06/19 11:08:22;;;;;;;6.95;4.80;;;28.10;10.50;;;;;;5075055;28;20456;-76
2023/06/19 11:10:49;;;;;;;9.70;5.00;;;28.30;10.20;;;;;;5076604;28;20383;-77
2023/06/19 11:13:20;;;;;;;9.85;4.55;;;28.60;9.80;;;;;;5077260;28;20419;-77
2023/06/19 11:15:47;;;;;;;6.60;4.40;;;28.80;9.50;;;;;;5076102;28;20394;-76
2023/06/19 11:18:15;;;;;;;11.37;4.73;;;28.70;9.40;;;;;;5080033;28;20760;-77
2023/06/19 11:20:49;;;;;;;7.05;4.50;;;28.40;9.10;;;;;;5082315;28;20388;-77
2023/06/19 11:23:15;;;;;;;8.45;4.70;;;28.40;9.60;;;;;;5083653;28;20432;-77
2023/06/19 11:25:42;;;;;;;7.60;5.50;;;28.40;9.00;;;;;;5084591;28;20521;-78
2023/06/19 11:28:23;;;;;;;8.15;4.97;;;28.30;10.10;;;;;;5082797;28;20410;-78
2023/06/19 11:30:57;;;;;;;6.70;4.50;;;28.40;9.20;;;;;;5079452;28;20384;-80
2023/06/19 11:33:23;;;;;;;5.65;4.80;;;28.30;9.60;;;;;;5078040;28;20435;-78
2023/06/19 11:35:52;;;;;;;9.53;4.80;;;28.40;8.80;;;;;;5078396;28;20407;-76
2023/06/19 11:38:24;;;;;;;11.63;5.20;;;28.80;8.40;;;;;;5079462;28;20403;-76
2023/06/19 11:40:50;;;;;;;7.65;5.00;;;29.20;7.90;;;;;;5081476;28;20732;-76
2023/06/19 11:43:29;;;;;;;7.75;4.90;;;29.20;7.70;;;;;;5086821;28;20383;-78
2023/06/19 11:46:06;;;;;;;9.20;5.43;;;29.30;7.10;;;;;;5079191;28;20383;-78
2023/06/19 11:48:31;;;;;;;6.90;5.00;;;29.00;7.60;;;;;;5082445;28;20418;-77
2023/06/19 11:50:58;;;;;;;7.93;5.30;;;29.00;8.00;;;;;;5086073;28;20420;-78
2023/06/19 11:53:24;;;;;;;6.82;5.05;;;29.10;7.70;;;;;;5082552;28;20379;-77
2023/06/19 11:55:51;;;;;;;8.13;4.93;;;29.30;7.50;;;;;;5081779;28;20376;-77
2023/06/19 11:58:17;;;;;;;13.15;5.32;;;29.20;7.60;;;;;;5086197;28;20403;-77
2023/06/19 12:00:43;;;;;;;10.87;5.57;;;29.20;7.70;;;;;;5082348;28;20749;-76
2023/06/19 12:03:09;;;;;;;9.30;5.50;;;29.40;7.00;;;;;;5077908;28;20376;-76
2023/06/19 12:05:35;;;;;;;7.60;5.38;;;29.50;6.40;;;;;;5075230;28;20748;-79
2023/06/19 12:08:02;;;;;;;9.80;5.60;;;29.50;6.70;;;;;;5075663;28;20508;-76
2023/06/19 12:10:28;;;;;;;7.30;5.20;;;29.60;6.50;;;;;;5076556;28;20379;-77
2023/06/19 12:12:54;;;;;;;8.07;6.20;;;29.60;6.30;;;;;;5075991;28;20422;-77
2023/06/19 12:15:19;;;;;;;7.70;5.30;;;29.60;6.40;;;;;;5076798;28;20429;-79
2023/06/19 12:17:46;;;;;;;7.77;5.20;;;29.90;5.80;;;;;;5078970;28;20400;-76
2023/06/19 12:20:13;;;;;;;5.35;4.78;;;30.20;5.40;;;;;;5075741;28;20387;-78
2023/06/19 12:22:39;;;;;;;7.20;5.32;;;30.40;4.60;;;;;;5076120;28;20414;-76
2023/06/19 12:25:05;;;;;;;6.63;5.30;;;30.60;4.30;;;;;;5078303;28;20396;-78
2023/06/19 12:27:31;;;;;;;10.30;5.30;;;30.80;3.60;;;;;;5076504;28;20426;-77
2023/06/19 12:29:57;;;;;;;9.20;5.20;;;31.00;3.60;;;;;;5075894;28;20435;-77
2023/06/19 12:32:23;;;;;;;8.90;4.90;;;31.10;3.00;;;;;;5076515;28;20376;-78
2023/06/19 12:34:49;;;;;;;7.07;5.07;;;31.10;3.40;;;;;;5075497;28;20380;-77
2023/06/19 12:37:17;;;;;;;8.43;5.78;;;31.50;2.50;;;;;;5088921;28;20367;-76
2023/06/19 12:39:43;;;;;;;11.00;5.70;;;31.50;2.50;;;;;;5084404;28;20383;-77
2023/06/19 12:42:08;;;;;;;8.90;5.07;;;31.40;2.50;;;;;;5081177;28;20410;-78
2023/06/19 12:44:34;;;;;;;6.68;5.40;;;31.30;2.80;;;;;;5081120;28;20725;-77